Time;durP1;ratioP1;P1;durP2;ratioP2;P2;SDS_P1;SDS_P2;PMS_P1;PMS_P2;Temp;Humidity;BMP_temperature;BMP_pressure;BME280_temperature;BME280_humidity;BME280_pressure;Samples;Min_cycle;Max_cycle;Signal;HPM_P1;HPM_P2
2021/04/06 00:14:33;;;;;;;8.30;0.80;;;-1.40;99.90;;;;;;4942681;28;20407;-67
2021/04/06 00:17:01;;;;;;;11.55;1.50;;;-1.40;99.90;;;;;;4953925;28;20043;-67
2021/04/06 00:19:31;;;;;;;9.05;1.13;;;-1.50;99.90;;;;;;4961453;28;20106;-67
2021/04/06 00:22:01;;;;;;;10.13;1.10;;;-1.50;99.90;;;;;;4933679;29;20047;-68
2021/04/06 00:24:31;;;;;;;13.50;1.23;;;-1.50;99.90;;;;;;4935059;29;20397;-67
2021/04/06 00:27:16;;;;;;;5.97;0.82;;;-1.40;99.90;;;;;;4950768;29;20078;-67
2021/04/06 00:30:06;;;;;;;7.38;1.00;;;-1.50;99.90;;;;;;4944375;29;20059;-67
2021/04/06 00:32:34;;;;;;;12.55;1.10;;;-1.50;99.90;;;;;;4946786;28;20138;-67
2021/04/06 00:35:03;;;;;;;11.73;1.05;;;-1.60;99.90;;;;;;4951200;28;20071;-67
2021/04/06 00:37:31;;;;;;;10.43;1.10;;;-1.70;99.90;;;;;;4952321;29;20059;-68
2021/04/06 00:40:10;;;;;;;6.32;0.90;;;-1.70;99.90;;;;;;4950697;29;20459;-67
2021/04/06 00:42:37;;;;;;;4.78;1.10;;;-1.70;99.90;;;;;;4934533;29;20086;-67
2021/04/06 00:45:10;;;;;;;7.82;1.17;;;-1.70;99.90;;;;;;4952134;28;20485;-67
2021/04/06 00:47:38;;;;;;;5.30;1.30;;;-1.70;99.90;;;;;;4951653;28;20093;-67
2021/04/06 00:50:11;;;;;;;7.28;1.42;;;-1.80;99.90;;;;;;4959565;28;20047;-68
2021/04/06 00:52:45;;;;;;;5.90;1.10;;;-1.80;99.90;;;;;;4934200;29;20050;-67
2021/04/06 00:55:19;;;;;;;10.10;1.25;;;-1.80;99.90;;;;;;4952584;28;20123;-67
2021/04/06 00:57:46;;;;;;;9.43;1.42;;;-1.80;99.90;;;;;;4951074;29;20062;-67
2021/04/06 01:00:20;;;;;;;7.55;1.20;;;-1.80;99.90;;;;;;4950053;28;20058;-67
2021/04/06 01:03:17;;;;;;;7.55;1.30;;;-1.90;99.90;;;;;;4940084;29;20073;-67
2021/04/06 01:05:59;;;;;;;10.05;0.98;;;-1.90;99.90;;;;;;4933496;29;20452;-67
2021/04/06 01:08:32;;;;;;;7.55;1.58;;;-1.90;99.90;;;;;;4953247;28;20134;-67
2021/04/06 01:11:02;;;;;;;11.27;2.17;;;-1.90;99.90;;;;;;4938594;29;20072;-67
2021/04/06 01:13:29;;;;;;;6.03;1.00;;;-2.00;99.90;;;;;;4938292;29;20113;-67
2021/04/06 01:15:56;;;;;;;14.07;1.60;;;-2.00;99.90;;;;;;4964722;28;20043;-68
2021/04/06 01:18:25;;;;;;;5.82;1.15;;;-2.00;99.90;;;;;;4950798;28;20053;-67
2021/04/06 01:20:54;;;;;;;9.00;1.45;;;-2.00;99.90;;;;;;4958069;28;20043;-67
2021/04/06 01:23:21;;;;;;;7.05;1.50;;;-2.00;99.90;;;;;;4937867;29;20047;-67
2021/04/06 01:25:58;;;;;;;6.65;1.20;;;-2.10;99.90;;;;;;4954290;29;20051;-67
2021/04/06 01:28:29;;;;;;;9.10;1.80;;;-2.00;99.90;;;;;;4937593;29;20122;-67
2021/04/06 01:31:00;;;;;;;9.75;1.42;;;-2.00;99.90;;;;;;4956941;28;20122;-67
2021/04/06 01:33:31;;;;;;;9.20;1.90;;;-2.00;99.90;;;;;;4954616;28;20109;-67
2021/04/06 01:36:00;;;;;;;10.07;1.38;;;-2.00;99.90;;;;;;4937338;29;20047;-68
2021/04/06 01:38:28;;;;;;;13.48;2.17;;;-2.00;99.90;;;;;;4954931;29;20381;-67
2021/04/06 01:40:59;;;;;;;12.55;1.35;;;-2.00;99.90;;;;;;4955114;29;20493;-67
2021/04/06 01:43:29;;;;;;;8.18;1.23;;;-2.10;99.90;;;;;;4954469;29;20094;-67
2021/04/06 01:46:02;;;;;;;10.02;1.77;;;-2.10;99.90;;;;;;4954484;28;20507;-67
2021/04/06 01:48:32;;;;;;;10.00;2.10;;;-2.00;99.90;;;;;;4952488;28;20095;-67
2021/04/06 01:50:59;;;;;;;13.00;1.52;;;-2.00;99.90;;;;;;4948758;28;20488;-67
2021/04/06 01:53:26;;;;;;;9.85;1.90;;;-1.90;99.90;;;;;;4954573;29;20043;-67
2021/04/06 01:56:05;;;;;;;9.60;1.30;;;-1.80;99.90;;;;;;4954780;29;20086;-67
2021/04/06 01:58:40;;;;;;;8.18;1.58;;;-1.80;99.90;;;;;;4953051;29;20427;-68
2021/04/06 02:01:17;;;;;;;9.02;1.45;;;-1.90;99.90;;;;;;4938912;29;20047;-67
2021/04/06 02:03:58;;;;;;;9.60;1.67;;;-1.90;99.90;;;;;;4937072;29;20114;-67
2021/04/06 02:06:31;;;;;;;14.50;2.85;;;-1.90;99.90;;;;;;4953395;29;20047;-67
2021/04/06 02:08:59;;;;;;;12.55;1.77;;;-2.00;99.90;;;;;;4947158;29;20035;-67
2021/04/06 02:11:31;;;;;;;11.57;1.63;;;-2.00;99.90;;;;;;4936700;29;20054;-68
2021/04/06 02:14:05;;;;;;;9.85;1.73;;;;;;;;;;4954649;29;20560;-67
2021/04/06 02:17:02;;;;;;;15.02;2.45;;;-2.00;99.90;;;;;;4949708;28;20102;-67
2021/04/06 02:19:38;;;;;;;16.17;1.60;;;-2.00;99.90;;;;;;4944747;28;20058;-67
2021/04/06 02:22:09;;;;;;;10.25;1.80;;;-2.00;99.90;;;;;;4954118;29;20408;-68
2021/04/06 02:24:42;;;;;;;10.38;1.52;;;-1.90;99.90;;;;;;4952898;29;20113;-67
2021/04/06 02:27:22;;;;;;;12.98;1.42;;;-1.80;99.90;;;;;;4952709;29;20070;-67
2021/04/06 02:30:03;;;;;;;15.25;1.58;;;-1.80;99.90;;;;;;4948897;29;20043;-67
2021/04/06 02:32:34;;;;;;;8.27;1.83;;;-1.80;99.90;;;;;;4954175;29;20070;-67
2021/04/06 02:35:12;;;;;;;11.93;1.90;;;-1.80;99.90;;;;;;4953874;28;20051;-67
2021/04/06 02:37:43;;;;;;;13.40;1.50;;;-1.90;99.90;;;;;;4935830;29;20508;-66
2021/04/06 02:40:12;;;;;;;10.35;2.13;;;-1.80;99.90;;;;;;4951619;29;20121;-67
2021/04/06 02:42:42;;;;;;;6.93;1.15;;;-1.80;99.90;;;;;;4953912;29;20043;-68
2021/04/06 02:45:20;;;;;;;9.73;1.70;;;-1.80;99.90;;;;;;4952462;29;20058;-67
2021/04/06 02:48:07;;;;;;;12.65;1.50;;;-1.80;99.90;;;;;;4950774;28;20110;-67
2021/04/06 02:50:36;;;;;;;15.13;1.40;;;-1.80;99.90;;;;;;4950352;28;20154;-67
2021/04/06 02:53:14;;;;;;;10.25;1.27;;;-1.70;99.90;;;;;;4951736;29;20090;-68
2021/04/06 02:55:42;;;;;;;9.10;1.50;;;-1.70;99.90;;;;;;4936174;29;20396;-67
2021/04/06 02:58:13;;;;;;;8.10;1.30;;;-1.70;99.90;;;;;;4952140;29;20047;-67
2021/04/06 03:00:40;;;;;;;10.70;1.67;;;-1.80;99.90;;;;;;4948436;28;20111;-68
2021/04/06 03:03:21;;;;;;;7.80;1.20;;;-1.80;99.90;;;;;;4953395;28;20058;-67
2021/04/06 03:05:59;;;;;;;11.27;1.58;;;-1.70;99.90;;;;;;4951625;28;20051;-67
2021/04/06 03:08:30;;;;;;;13.07;2.08;;;-1.70;99.90;;;;;;4952105;28;20531;-67
2021/04/06 03:10:57;;;;;;;10.05;1.88;;;-1.50;99.90;;;;;;4933218;29;20051;-67
2021/04/06 03:13:26;;;;;;;11.15;1.30;;;-1.40;99.90;;;;;;4952308;29;20039;-67
2021/04/06 03:15:54;;;;;;;11.43;1.38;;;-1.30;99.90;;;;;;4950512;28;20047;-67
2021/04/06 03:18:31;;;;;;;11.93;1.75;;;-1.20;99.90;;;;;;4951995;29;20082;-68
2021/04/06 03:21:01;;;;;;;11.45;1.50;;;-1.10;99.90;;;;;;4950203;28;20083;-67
2021/04/06 03:23:29;;;;;;;13.45;1.88;;;-1.00;99.90;;;;;;4951382;29;20047;-67
2021/04/06 03:25:57;;;;;;;13.77;1.80;;;-1.20;99.90;;;;;;4934619;29;20350;-67
2021/04/06 03:28:31;;;;;;;9.98;1.70;;;-1.30;99.90;;;;;;4952904;29;20067;-67
2021/04/06 03:31:13;;;;;;;14.00;2.28;;;-1.40;99.90;;;;;;4950711;28;20039;-67
2021/04/06 03:33:42;;;;;;;7.70;1.30;;;-1.40;99.90;;;;;;4935124;29;20052;-67
2021/04/06 03:36:23;;;;;;;10.55;2.47;;;-1.50;99.90;;;;;;4951649;28;20054;-68
2021/04/06 03:38:56;;;;;;;20.65;1.83;;;-1.50;99.90;;;;;;4953075;29;20043;-67
2021/04/06 03:41:27;;;;;;;9.70;1.60;;;-1.60;99.90;;;;;;4934322;29;20094;-67
2021/04/06 03:44:03;;;;;;;9.52;1.40;;;-1.60;99.90;;;;;;4951433;29;20401;-67
2021/04/06 03:46:32;;;;;;;14.93;2.25;;;-1.70;99.90;;;;;;4947617;29;20410;-67
2021/04/06 03:49:21;;;;;;;12.77;1.75;;;-1.70;99.90;;;;;;4959001;28;20131;-67
2021/04/06 03:51:49;;;;;;;11.82;1.30;;;-1.60;99.90;;;;;;4952066;29;20047;-67
2021/04/06 03:54:38;;;;;;;12.52;1.77;;;-1.70;99.90;;;;;;4951917;29;20057;-67
2021/04/06 03:57:20;;;;;;;11.13;2.22;;;-1.70;99.90;;;;;;4940524;29;20102;-67
2021/04/06 03:59:46;;;;;;;16.48;2.08;;;-1.80;99.90;;;;;;4935585;29;20107;-67
2021/04/06 04:02:13;;;;;;;10.15;1.40;;;-1.80;99.90;;;;;;4950573;29;20520;-67
2021/04/06 04:04:39;;;;;;;7.28;1.33;;;-1.80;99.90;;;;;;4952226;29;20066;-67
2021/04/06 04:07:09;;;;;;;12.73;3.55;;;-1.80;99.90;;;;;;4953835;28;20074;-67
2021/04/06 04:09:35;;;;;;;14.60;1.85;;;-1.80;99.90;;;;;;4957357;28;20196;-67
2021/04/06 04:12:02;;;;;;;11.05;1.63;;;-1.80;99.90;;;;;;4951935;29;20105;-67
2021/04/06 04:14:28;;;;;;;8.57;1.70;;;-1.90;99.90;;;;;;4951448;29;20058;-67
2021/04/06 04:16:55;;;;;;;15.32;2.13;;;-1.90;99.90;;;;;;4951997;29;20050;-67
2021/04/06 04:19:22;;;;;;;11.00;1.73;;;-1.90;99.90;;;;;;4952046;29;20625;-67
2021/04/06 04:21:48;;;;;;;12.82;1.95;;;-1.80;99.90;;;;;;4951229;29;20047;-67
2021/04/06 04:24:14;;;;;;;13.80;2.15;;;-1.90;99.90;;;;;;4952585;29;20035;-68
2021/04/06 04:26:41;;;;;;;12.05;1.90;;;-1.90;99.90;;;;;;4951332;29;20110;-67
2021/04/06 04:29:08;;;;;;;12.50;2.13;;;-1.80;99.90;;;;;;4950537;29;20102;-68
2021/04/06 04:31:34;;;;;;;8.90;1.73;;;-1.80;99.90;;;;;;4951627;29;20400;-69
2021/04/06 04:34:01;;;;;;;10.00;1.30;;;-1.80;99.90;;;;;;4949034;28;20035;-68
2021/04/06 04:36:27;;;;;;;17.15;1.83;;;-1.80;99.90;;;;;;4950587;29;20044;-69
2021/04/06 04:39:01;;;;;;;10.75;2.33;;;-1.80;99.90;;;;;;4952009;29;20074;-69
2021/04/06 04:41:27;;;;;;;8.77;1.55;;;-1.80;99.90;;;;;;4949068;28;20459;-68
2021/04/06 04:43:54;;;;;;;13.23;2.42;;;-1.70;99.90;;;;;;4951441;28;20440;-68
2021/04/06 04:46:20;;;;;;;12.25;1.83;;;-1.70;99.90;;;;;;4933559;29;20051;-68
2021/04/06 04:48:46;;;;;;;15.95;2.15;;;-1.70;99.90;;;;;;4951964;29;20054;-68
2021/04/06 04:51:13;;;;;;;9.43;2.40;;;-1.60;99.90;;;;;;4950602;29;20039;-66
2021/04/06 04:53:39;;;;;;;12.82;2.47;;;-1.60;99.90;;;;;;4951590;29;20201;-68
2021/04/06 04:56:06;;;;;;;14.48;2.22;;;-1.50;99.90;;;;;;4951772;28;20048;-67
2021/04/06 04:58:33;;;;;;;20.52;2.97;;;-1.50;99.90;;;;;;4949797;29;20085;-68
2021/04/06 05:00:59;;;;;;;10.70;1.90;;;-1.40;99.90;;;;;;4934341;29;20047;-68
2021/04/06 05:03:29;;;;;;;15.52;1.83;;;-1.40;99.90;;;;;;4960519;28;20094;-68
2021/04/06 05:05:56;;;;;;;9.10;1.70;;;-1.30;99.90;;;;;;4954343;28;20047;-68
2021/04/06 05:08:22;;;;;;;12.98;1.63;;;-1.20;99.90;;;;;;4951742;29;20043;-68
2021/04/06 05:10:48;;;;;;;10.05;2.28;;;-1.20;99.90;;;;;;4952125;29;20090;-68
2021/04/06 05:13:15;;;;;;;15.07;2.40;;;-1.10;99.90;;;;;;4934237;29;20464;-68
2021/04/06 05:15:41;;;;;;;12.20;1.67;;;-1.10;99.90;;;;;;4950951;29;20086;-68
2021/04/06 05:18:08;;;;;;;8.85;1.73;;;-1.30;99.90;;;;;;4951440;29;20559;-68
2021/04/06 05:20:34;;;;;;;15.85;2.47;;;-1.30;99.90;;;;;;4951166;28;20050;-68
2021/04/06 05:23:00;;;;;;;13.20;2.30;;;-1.30;99.90;;;;;;4935125;28;20042;-68
2021/04/06 05:25:30;;;;;;;14.02;2.05;;;-1.30;99.90;;;;;;4951522;28;20102;-68
2021/04/06 05:27:56;;;;;;;14.95;2.70;;;-1.30;99.90;;;;;;4950769;29;20094;-68
2021/04/06 05:30:23;;;;;;;14.02;2.70;;;-1.10;99.90;;;;;;4951192;29;20039;-68
2021/04/06 05:32:49;;;;;;;10.95;2.60;;;-1.10;99.90;;;;;;4934083;29;20096;-68
2021/04/06 05:35:16;;;;;;;14.52;2.72;;;-1.10;99.90;;;;;;4932689;28;20073;-67
2021/04/06 05:37:45;;;;;;;10.32;3.03;;;-1.00;99.90;;;;;;4951340;29;20053;-68
2021/04/06 05:40:11;;;;;;;7.60;2.42;;;-1.10;99.90;;;;;;4951638;29;20055;-68
2021/04/06 05:42:38;;;;;;;7.45;3.17;;;-1.10;99.90;;;;;;4951298;28;20047;-68
2021/04/06 05:45:06;;;;;;;11.80;3.28;;;-1.20;99.90;;;;;;4969780;28;20051;-67
2021/04/06 05:47:37;;;;;;;11.82;2.40;;;-1.10;99.90;;;;;;4969478;28;20451;-68
2021/04/06 05:50:05;;;;;;;13.95;2.92;;;-1.20;99.90;;;;;;4970787;28;20051;-68
2021/04/06 05:52:33;;;;;;;13.52;2.67;;;-1.10;99.90;;;;;;4957251;28;20102;-68
2021/04/06 05:55:01;;;;;;;11.63;2.97;;;-1.00;99.90;;;;;;4954386;28;20043;-67
2021/04/06 05:57:28;;;;;;;15.02;3.45;;;-0.80;99.90;;;;;;4955296;29;20131;-67
2021/04/06 05:59:55;;;;;;;16.45;2.50;;;-0.80;99.90;;;;;;4954458;29;20512;-68
2021/04/06 06:02:22;;;;;;;14.70;3.00;;;-0.80;99.90;;;;;;4952393;28;20116;-68
2021/04/06 06:04:48;;;;;;;20.33;2.72;;;-0.60;99.90;;;;;;4951368;28;20365;-68
2021/04/06 06:07:16;;;;;;;11.23;2.90;;;-0.60;99.90;;;;;;4925560;29;20428;-68
2021/04/06 06:09:43;;;;;;;17.80;3.15;;;-0.60;99.90;;;;;;4954201;29;20069;-68
2021/04/06 06:12:20;;;;;;;13.60;2.88;;;-0.60;99.90;;;;;;4954129;28;20051;-68
2021/04/06 06:14:51;;;;;;;17.40;2.92;;;-0.60;99.90;;;;;;4937188;28;20054;-68
2021/04/06 06:17:24;;;;;;;18.52;3.65;;;-0.50;99.90;;;;;;4936299;28;20054;-68
2021/04/06 06:19:55;;;;;;;17.73;3.13;;;-0.40;99.90;;;;;;4953222;29;20055;-68
2021/04/06 06:22:26;;;;;;;15.90;3.13;;;-0.30;99.90;;;;;;4943102;29;20100;-67
2021/04/06 06:25:11;;;;;;;15.55;2.78;;;-0.20;99.90;;;;;;4945484;29;20067;-68
2021/04/06 06:27:41;;;;;;;17.92;2.88;;;0.00;99.90;;;;;;4935881;29;20089;-68
2021/04/06 06:30:32;;;;;;;14.90;3.85;;;0.00;99.90;;;;;;4949571;29;20042;-68
2021/04/06 06:33:23;;;;;;;11.40;3.75;;;0.00;99.90;;;;;;4950902;28;20502;-67
2021/04/06 06:35:55;;;;;;;14.07;2.70;;;0.00;99.90;;;;;;4944920;29;20051;-68
2021/04/06 06:38:32;;;;;;;12.48;2.75;;;0.00;99.90;;;;;;4953831;28;20039;-68
2021/04/06 06:41:14;;;;;;;9.32;2.78;;;0.00;99.90;;;;;;4951470;28;20059;-68
2021/04/06 06:43:43;;;;;;;12.40;3.13;;;0.10;99.90;;;;;;4954381;28;20047;-68
2021/04/06 06:46:24;;;;;;;17.60;2.70;;;0.10;99.90;;;;;;4951676;28;20047;-68
2021/04/06 06:48:56;;;;;;;13.98;2.53;;;0.20;99.90;;;;;;4958772;28;20058;-68
2021/04/06 06:51:31;;;;;;;13.88;2.65;;;0.40;99.90;;;;;;4954224;28;20118;-67
2021/04/06 06:53:59;;;;;;;10.90;2.67;;;0.50;99.90;;;;;;4949727;28;20066;-67
2021/04/06 06:56:42;;;;;;;16.52;3.30;;;0.30;99.90;;;;;;4935855;29;20409;-67
2021/04/06 06:59:09;;;;;;;;;;;0.50;99.90;;;;;;4953784;28;20453;-68
2021/04/06 07:01:38;;;;;;;8.10;2.40;;;0.60;99.90;;;;;;4924224;29;19923;-68
2021/04/06 07:04:08;;;;;;;14.38;2.60;;;0.60;99.90;;;;;;4945823;29;20058;-67
2021/04/06 07:06:58;;;;;;;13.65;2.85;;;0.70;99.90;;;;;;4943453;28;20456;-68
2021/04/06 07:09:29;;;;;;;13.88;2.75;;;0.70;99.90;;;;;;4952960;29;20036;-68
2021/04/06 07:12:03;;;;;;;12.82;3.05;;;0.70;99.90;;;;;;4934966;29;20047;-68
2021/04/06 07:14:38;;;;;;;14.27;2.13;;;0.80;99.90;;;;;;4947051;28;20062;-68
2021/04/06 07:17:06;;;;;;;12.20;2.60;;;0.90;99.90;;;;;;4950747;28;20046;-68
2021/04/06 07:19:39;;;;;;;12.80;2.40;;;1.00;99.90;;;;;;4950358;29;20438;-66
2021/04/06 07:22:06;;;;;;;8.48;3.00;;;1.10;99.90;;;;;;4951452;28;20449;-68
2021/04/06 07:24:40;;;;;;;11.68;3.05;;;1.10;99.90;;;;;;4951557;28;20155;-69
2021/04/06 07:27:10;;;;;;;10.80;2.97;;;1.20;99.90;;;;;;4951423;29;20043;-68
2021/04/06 07:29:37;;;;;;;11.27;2.47;;;1.30;99.90;;;;;;4951440;29;20039;-68
2021/04/06 07:32:08;;;;;;;13.52;3.08;;;1.40;99.90;;;;;;4951589;29;20115;-68
2021/04/06 07:34:37;;;;;;;10.88;2.85;;;1.50;99.90;;;;;;4951386;29;20078;-68
2021/04/06 07:37:04;;;;;;;13.18;2.72;;;1.40;99.90;;;;;;4952604;28;20090;-68
2021/04/06 07:39:32;;;;;;;14.80;3.00;;;1.40;99.90;;;;;;4952256;29;20102;-68
2021/04/06 07:41:59;;;;;;;11.30;2.25;;;1.50;99.90;;;;;;4952218;28;20059;-68
2021/04/06 07:44:26;;;;;;;12.80;2.72;;;1.30;99.90;;;;;;4949769;29;20122;-68
2021/04/06 07:46:53;;;;;;;13.90;2.97;;;1.20;99.90;;;;;;4951743;29;20595;-67
2021/04/06 07:49:22;;;;;;;10.88;2.78;;;1.10;99.90;;;;;;4963918;28;20053;-68
2021/04/06 07:51:51;;;;;;;10.20;2.90;;;1.20;99.90;;;;;;4951365;28;20045;-68
2021/04/06 07:54:22;;;;;;;15.77;3.05;;;1.40;99.90;;;;;;4946585;29;20152;-68
2021/04/06 07:57:03;;;;;;;10.18;2.42;;;1.50;99.90;;;;;;4933958;29;20184;-68
2021/04/06 07:59:29;;;;;;;12.75;2.38;;;1.80;99.90;;;;;;4950633;28;20047;-68
2021/04/06 08:01:59;;;;;;;14.98;2.75;;;2.00;99.90;;;;;;4952207;29;20047;-68
2021/04/06 08:04:49;;;;;;;10.57;4.28;;;2.20;99.90;;;;;;4951774;29;20039;-68
2021/04/06 08:07:22;;;;;;;9.70;2.33;;;2.50;99.90;;;;;;4947150;29;20574;-68
2021/04/06 08:09:49;;;;;;;12.40;2.85;;;2.20;99.90;;;;;;4952037;28;20485;-68
2021/04/06 08:12:16;;;;;;;10.57;2.33;;;2.20;99.90;;;;;;4943689;29;20040;-68
2021/04/06 08:14:45;;;;;;;10.73;2.38;;;2.40;99.90;;;;;;4947192;28;20101;-68
2021/04/06 08:17:24;;;;;;;10.27;2.35;;;2.70;99.90;;;;;;4940377;29;20059;-68
2021/04/06 08:19:52;;;;;;;10.55;2.40;;;2.70;99.90;;;;;;4952555;29;20113;-68
2021/04/06 08:22:23;;;;;;;11.77;2.47;;;2.90;99.90;;;;;;4962399;28;20047;-68
2021/04/06 08:24:50;;;;;;;10.00;2.35;;;3.20;99.90;;;;;;4951441;28;20062;-68
2021/04/06 08:27:36;;;;;;;12.55;2.20;;;3.40;99.90;;;;;;4952544;29;20051;-68
2021/04/06 08:30:30;;;;;;;11.65;1.80;;;3.40;99.90;;;;;;4945560;29;20106;-68
2021/04/06 08:32:56;;;;;;;11.93;2.03;;;3.60;99.90;;;;;;4950223;28;20349;-69
2021/04/06 08:35:48;;;;;;;14.50;1.83;;;3.50;99.90;;;;;;4955231;28;20043;-68
2021/04/06 08:38:24;;;;;;;6.78;1.52;;;3.40;99.90;;;;;;4951258;29;20476;-68
2021/04/06 08:40:59;;;;;;;8.65;1.95;;;3.50;99.90;;;;;;4951447;28;20047;-68
2021/04/06 08:44:05;;;;;;;11.25;2.50;;;3.60;99.90;;;;;;4950669;29;20098;-68
2021/04/06 08:46:42;;;;;;;16.05;2.15;;;3.70;99.90;;;;;;4891245;29;20057;-68
2021/04/06 08:49:14;;;;;;;12.80;2.05;;;4.00;99.90;;;;;;4943303;29;20436;-68
2021/04/06 08:51:47;;;;;;;9.65;2.22;;;4.20;99.90;;;;;;4933107;29;20389;-69
2021/04/06 08:54:19;;;;;;;12.18;2.42;;;4.00;99.90;;;;;;4950837;29;20110;-68
2021/04/06 08:56:49;;;;;;;10.32;2.28;;;3.70;99.90;;;;;;4949568;28;20047;-68
2021/04/06 08:59:17;;;;;;;9.82;1.77;;;3.60;99.90;;;;;;4950028;29;20054;-68
2021/04/06 09:01:46;;;;;;;10.63;2.05;;;3.70;99.90;;;;;;4950936;29;20106;-69
2021/04/06 09:04:21;;;;;;;11.82;2.03;;;4.00;99.90;;;;;;4954077;28;20133;-68
2021/04/06 09:06:48;;;;;;;9.55;2.75;;;4.40;99.90;;;;;;4950307;29;20055;-68
2021/04/06 09:09:28;;;;;;;5.25;1.63;;;4.30;99.90;;;;;;4932994;29;20094;-68
2021/04/06 09:11:59;;;;;;;7.72;2.00;;;4.70;99.90;;;;;;4941831;29;20043;-69
2021/04/06 09:14:27;;;;;;;11.23;1.75;;;5.40;99.90;;;;;;4951342;28;20062;-68
2021/04/06 09:16:54;;;;;;;7.32;1.52;;;5.80;99.90;;;;;;4951085;29;20114;-68
2021/04/06 09:19:22;;;;;;;5.95;1.35;;;5.50;99.90;;;;;;4933860;29;20094;-67
2021/04/06 09:21:52;;;;;;;8.95;1.60;;;5.80;99.90;;;;;;4933501;29;20051;-68
2021/04/06 09:24:19;;;;;;;10.23;1.83;;;5.70;99.90;;;;;;4950517;29;20055;-67
2021/04/06 09:26:49;;;;;;;5.32;1.50;;;5.40;99.90;;;;;;4950891;28;20114;-67
2021/04/06 09:29:19;;;;;;;11.40;1.98;;;5.20;99.90;;;;;;4951840;28;20040;-68
2021/04/06 09:31:47;;;;;;;8.27;1.73;;;5.20;99.90;;;;;;4947765;28;20043;-68
2021/04/06 09:34:22;;;;;;;8.07;1.80;;;5.00;99.90;;;;;;4952619;28;20069;-66
2021/04/06 09:37:19;;;;;;;7.97;1.60;;;5.10;99.90;;;;;;4953636;28;20528;-68
2021/04/06 09:39:49;;;;;;;11.27;1.58;;;5.20;99.90;;;;;;4953152;29;20067;-68
2021/04/06 09:42:16;;;;;;;10.32;1.83;;;5.30;99.90;;;;;;4952615;28;20050;-67
2021/04/06 09:44:45;;;;;;;7.97;1.30;;;4.80;99.90;;;;;;4936807;28;20055;-68
2021/04/06 09:47:13;;;;;;;5.45;1.67;;;4.90;99.90;;;;;;4935419;29;20106;-68
2021/04/06 09:49:48;;;;;;;5.90;1.40;;;5.50;99.90;;;;;;4944294;29;20044;-67
2021/04/06 09:52:19;;;;;;;6.70;1.58;;;5.90;99.90;;;;;;4952414;29;20035;-68
2021/04/06 09:54:50;;;;;;;9.77;1.85;;;6.50;99.90;;;;;;4954063;29;20098;-68
2021/04/06 09:57:17;;;;;;;7.90;1.45;;;6.90;99.90;;;;;;4953793;29;20365;-68
2021/04/06 09:59:52;;;;;;;5.60;1.20;;;6.20;99.90;;;;;;4954400;28;20101;-68
2021/04/06 10:02:25;;;;;;;8.95;1.90;;;5.70;99.90;;;;;;4953273;28;20091;-67
2021/04/06 10:04:52;;;;;;;5.07;1.00;;;5.40;99.90;;;;;;4936420;29;20504;-68
2021/04/06 10:07:20;;;;;;;9.63;1.67;;;4.80;99.90;;;;;;4952909;28;20637;-67
2021/04/06 10:10:02;;;;;;;8.00;1.35;;;4.50;99.90;;;;;;4953571;29;20047;-67
2021/04/06 10:12:31;;;;;;;4.93;1.17;;;4.40;99.90;;;;;;4935701;29;20043;-67
2021/04/06 10:14:58;;;;;;;3.70;1.02;;;4.40;99.90;;;;;;4934606;29;20436;-68
2021/04/06 10:17:38;;;;;;;5.95;1.10;;;4.90;99.90;;;;;;4953642;29;20047;-68
2021/04/06 10:20:10;;;;;;;6.40;1.00;;;6.20;99.90;;;;;;4953113;28;20106;-68
2021/04/06 10:22:44;;;;;;;7.90;0.98;;;7.00;99.90;;;;;;4953181;29;20051;-68
2021/04/06 10:25:23;;;;;;;17.15;1.13;;;7.00;99.90;;;;;;4950298;28;20051;-68
2021/04/06 10:27:55;;;;;;;6.82;1.10;;;7.00;99.90;;;;;;4941493;28;20122;-68
2021/04/06 10:30:46;;;;;;;3.88;0.88;;;6.60;99.90;;;;;;4957081;28;20042;-67
2021/04/06 10:33:16;;;;;;;4.65;1.00;;;6.50;99.90;;;;;;4963689;28;20038;-68
2021/04/06 10:35:55;;;;;;;4.45;0.82;;;6.40;99.90;;;;;;4953811;28;20047;-68
2021/04/06 10:38:34;;;;;;;4.70;0.88;;;6.10;99.90;;;;;;4952384;28;20522;-68
2021/04/06 10:41:11;;;;;;;4.60;0.90;;;5.60;99.90;;;;;;4954000;28;20031;-68
2021/04/06 10:43:41;;;;;;;6.00;1.10;;;5.20;99.90;;;;;;4935783;29;20125;-68
2021/04/06 10:46:12;;;;;;;7.13;1.30;;;5.10;99.90;;;;;;4952090;28;20043;-68
2021/04/06 10:48:42;;;;;;;4.85;1.08;;;5.00;99.90;;;;;;4956648;28;20150;-68
2021/04/06 10:51:10;;;;;;;5.60;0.93;;;5.70;99.90;;;;;;4960764;28;20199;-68
2021/04/06 10:53:46;;;;;;;7.90;0.93;;;6.50;99.90;;;;;;4955746;28;20051;-68
2021/04/06 10:56:24;;;;;;;2.40;0.80;;;6.90;99.90;;;;;;4957906;28;20094;-68
2021/04/06 10:58:55;;;;;;;6.57;1.08;;;7.30;99.90;;;;;;4954268;28;20047;-68
2021/04/06 11:01:28;;;;;;;4.15;0.90;;;7.60;99.90;;;;;;4940324;29;20554;-68
2021/04/06 11:03:57;;;;;;;3.90;0.90;;;7.70;99.90;;;;;;4951180;28;20047;-69
2021/04/06 11:06:31;;;;;;;3.55;0.90;;;7.70;99.90;;;;;;4952188;28;20055;-68
2021/04/06 11:08:58;;;;;;;5.38;1.10;;;7.00;99.90;;;;;;4951468;28;20047;-68
2021/04/06 11:11:34;;;;;;;3.72;0.65;;;6.20;99.90;;;;;;4950280;28;20379;-67
2021/04/06 11:14:13;;;;;;;5.47;1.25;;;5.50;99.90;;;;;;4951780;28;20086;-68
2021/04/06 11:16:41;;;;;;;2.85;1.00;;;5.70;99.90;;;;;;4950842;28;20369;-68
2021/04/06 11:19:26;;;;;;;6.22;0.80;;;5.70;99.90;;;;;;4952674;28;20078;-67
2021/04/06 11:22:03;;;;;;;3.67;0.80;;;5.80;99.90;;;;;;4952954;29;20055;-68
2021/04/06 11:24:32;;;;;;;3.25;0.73;;;5.90;99.90;;;;;;4952571;28;20096;-68
2021/04/06 11:27:02;;;;;;;2.42;0.60;;;5.80;99.90;;;;;;4950695;29;20079;-67
2021/04/06 11:29:31;;;;;;;4.80;0.88;;;6.00;99.90;;;;;;4952804;29;20401;-68
2021/04/06 11:32:02;;;;;;;5.22;1.20;;;6.00;99.90;;;;;;4953022;29;20484;-68
2021/04/06 11:34:29;;;;;;;5.07;0.90;;;6.30;99.90;;;;;;4932539;29;20141;-68
2021/04/06 11:36:56;;;;;;;2.20;0.60;;;6.70;99.90;;;;;;4951888;29;20053;-68
2021/04/06 11:39:32;;;;;;;6.45;0.95;;;6.50;99.40;;;;;;4951900;28;20516;-68
2021/04/06 11:42:00;;;;;;;2.00;0.77;;;6.80;99.90;;;;;;4951725;28;20047;-68
2021/04/06 11:44:27;;;;;;;3.83;0.82;;;6.60;99.40;;;;;;4952410;29;20110;-68
2021/04/06 11:46:53;;;;;;;2.80;0.80;;;6.30;99.90;;;;;;4951920;29;20044;-67
2021/04/06 11:49:21;;;;;;;2.20;0.60;;;6.10;96.90;;;;;;4952872;29;20054;-68
2021/04/06 11:51:48;;;;;;;3.28;0.80;;;6.30;97.00;;;;;;4934569;29;20051;-68
2021/04/06 11:54:19;;;;;;;2.33;0.68;;;6.50;94.80;;;;;;4954311;28;20101;-68
2021/04/06 11:56:47;;;;;;;5.43;0.60;;;6.80;96.00;;;;;;4952264;28;20098;-67
2021/04/06 11:59:14;;;;;;;3.55;0.70;;;6.90;95.80;;;;;;4951960;29;20098;-68
2021/04/06 12:01:42;;;;;;;2.97;0.60;;;6.90;90.80;;;;;;4950825;28;20043;-68
2021/04/06 12:04:09;;;;;;;2.90;0.73;;;6.80;91.60;;;;;;4951890;29;20534;-68
2021/04/06 12:06:36;;;;;;;3.17;0.70;;;7.20;92.40;;;;;;4951147;28;20047;-68
2021/04/06 12:09:04;;;;;;;3.97;0.70;;;7.10;91.40;;;;;;4950981;29;20043;-68
2021/04/06 12:11:31;;;;;;;3.22;0.47;;;6.70;94.30;;;;;;4950576;28;20435;-68
2021/04/06 12:13:58;;;;;;;3.75;0.47;;;6.60;90.70;;;;;;4931207;29;20070;-68
2021/04/06 12:16:25;;;;;;;1.90;0.50;;;6.10;91.90;;;;;;4947565;28;20040;-68
2021/04/06 12:18:51;;;;;;;2.65;0.60;;;6.20;92.40;;;;;;4932980;29;20051;-68
2021/04/06 12:21:17;;;;;;;2.53;0.60;;;6.20;90.80;;;;;;4950875;29;20070;-68
2021/04/06 12:23:44;;;;;;;1.70;0.45;;;6.40;91.50;;;;;;4934375;29;20407;-67
2021/04/06 12:26:10;;;;;;;1.92;0.50;;;6.60;92.00;;;;;;4951558;28;20051;-68
2021/04/06 12:28:36;;;;;;;4.00;0.60;;;6.60;88.00;;;;;;4949858;29;20050;-68
2021/04/06 12:31:04;;;;;;;1.85;0.50;;;6.50;87.60;;;;;;4950618;29;20483;-68
2021/04/06 12:33:34;;;;;;;3.42;0.50;;;7.00;90.40;;;;;;4933272;29;20051;-68
2021/04/06 12:36:02;;;;;;;2.00;0.47;;;7.40;89.20;;;;;;4932406;29;20488;-68
2021/04/06 12:38:28;;;;;;;2.65;0.70;;;7.40;86.80;;;;;;4933353;29;20142;-68
2021/04/06 12:40:56;;;;;;;3.78;0.57;;;7.20;85.00;;;;;;4951222;29;20118;-68
2021/04/06 12:43:22;;;;;;;1.80;0.52;;;7.30;86.20;;;;;;4933762;29;20070;-68
2021/04/06 12:45:49;;;;;;;2.35;0.73;;;7.30;86.30;;;;;;4951063;28;20050;-68
2021/04/06 12:48:16;;;;;;;8.88;0.60;;;7.10;85.20;;;;;;4954299;28;20043;-68
2021/04/06 12:50:42;;;;;;;2.20;0.55;;;6.90;87.20;;;;;;4951191;28;20048;-67
2021/04/06 12:53:09;;;;;;;2.40;0.65;;;6.90;86.30;;;;;;4932675;29;20476;-67
2021/04/06 12:55:39;;;;;;;5.80;0.70;;;6.20;86.90;;;;;;4950062;28;20043;-68
2021/04/06 12:58:05;;;;;;;1.48;0.60;;;6.20;87.60;;;;;;4949903;28;20054;-67
2021/04/06 13:00:32;;;;;;;3.25;0.50;;;6.20;86.90;;;;;;4950318;29;20055;-67
2021/04/06 13:02:58;;;;;;;2.58;0.50;;;6.00;82.80;;;;;;4951530;28;20130;-68
2021/04/06 13:05:25;;;;;;;2.63;0.68;;;5.90;86.70;;;;;;4937344;29;20047;-68
2021/04/06 13:07:52;;;;;;;5.00;0.80;;;6.90;87.40;;;;;;4951368;29;20043;-68
2021/04/06 13:10:19;;;;;;;2.08;0.65;;;8.80;78.70;;;;;;4954546;28;20047;-67
2021/04/06 13:12:46;;;;;;;3.38;0.80;;;8.30;83.30;;;;;;4937047;29;20678;-68
2021/04/06 13:15:13;;;;;;;1.73;0.65;;;7.60;83.30;;;;;;4957367;28;20094;-68
2021/04/06 13:17:40;;;;;;;6.10;0.80;;;8.60;82.60;;;;;;4960068;28;20110;-68
2021/04/06 13:20:12;;;;;;;5.07;0.68;;;8.40;82.70;;;;;;4954647;28;20047;-68
2021/04/06 13:22:39;;;;;;;2.72;0.80;;;7.90;83.30;;;;;;4937831;29;20047;-68